sensor_id;sensor_type;location;lat;lon;timestamp;P1;durP1;ratioP1;P2;durP2;ratioP2
21114;SDS011;10715;48.546;9.896;2023-05-16T00:00:06;3.80;;;3.50;;
21114;SDS011;10715;48.546;9.896;2023-05-16T00:02:36;4.90;;;3.47;;
21114;SDS011;10715;48.546;9.896;2023-05-16T00:05:03;3.90;;;3.60;;
21114;SDS011;10715;48.546;9.896;2023-05-16T00:07:31;3.20;;;2.90;;
21114;SDS011;10715;48.546;9.896;2023-05-16T00:09:57;2.90;;;2.70;;
21114;SDS011;10715;48.546;9.896;2023-05-16T00:12:23;2.90;;;2.77;;
21114;SDS011;10715;48.546;9.896;2023-05-16T00:14:50;3.10;;;2.90;;
21114;SDS011;10715;48.546;9.896;2023-05-16T00:17:16;3.07;;;2.87;;
21114;SDS011;10715;48.546;9.896;2023-05-16T00:19:44;5.23;;;3.50;;
21114;SDS011;10715;48.546;9.896;2023-05-16T00:22:13;4.63;;;2.80;;
21114;SDS011;10715;48.546;9.896;2023-05-16T00:24:39;3.10;;;2.90;;
21114;SDS011;10715;48.546;9.896;2023-05-16T00:27:05;6.10;;;3.50;;
21114;SDS011;10715;48.546;9.896;2023-05-16T00:29:32;3.23;;;3.03;;
21114;SDS011;10715;48.546;9.896;2023-05-16T00:32:00;3.17;;;2.97;;
21114;SDS011;10715;48.546;9.896;2023-05-16T00:34:26;3.40;;;3.10;;
21114;SDS011;10715;48.546;9.896;2023-05-16T00:36:52;4.57;;;4.17;;
21114;SDS011;10715;48.546;9.896;2023-05-16T00:39:18;3.73;;;3.17;;
21114;SDS011;10715;48.546;9.896;2023-05-16T00:41:44;4.23;;;3.30;;
21114;SDS011;10715;48.546;9.896;2023-05-16T00:44:10;3.00;;;2.80;;
21114;SDS011;10715;48.546;9.896;2023-05-16T00:46:36;4.07;;;3.77;;
21114;SDS011;10715;48.546;9.896;2023-05-16T00:49:02;4.07;;;3.60;;
21114;SDS011;10715;48.546;9.896;2023-05-16T00:51:29;3.10;;;2.90;;
21114;SDS011;10715;48.546;9.896;2023-05-16T00:53:55;3.00;;;2.70;;
21114;SDS011;10715;48.546;9.896;2023-05-16T00:56:21;2.97;;;2.77;;
21114;SDS011;10715;48.546;9.896;2023-05-16T00:58:47;2.67;;;2.47;;
21114;SDS011;10715;48.546;9.896;2023-05-16T01:01:14;2.87;;;2.63;;
21114;SDS011;10715;48.546;9.896;2023-05-16T01:03:41;3.57;;;3.27;;
21114;SDS011;10715;48.546;9.896;2023-05-16T01:06:10;6.00;;;3.90;;
21114;SDS011;10715;48.546;9.896;2023-05-16T01:08:36;3.10;;;2.80;;
21114;SDS011;10715;48.546;9.896;2023-05-16T01:11:15;3.50;;;3.20;;
21114;SDS011;10715;48.546;9.896;2023-05-16T01:16:35;2.70;;;2.40;;
21114;SDS011;10715;48.546;9.896;2023-05-16T01:21:42;3.40;;;3.17;;
21114;SDS011;10715;48.546;9.896;2023-05-16T01:24:19;3.57;;;3.27;;
21114;SDS011;10715;48.546;9.896;2023-05-16T01:26:56;3.73;;;3.43;;
21114;SDS011;10715;48.546;9.896;2023-05-16T01:29:24;3.60;;;3.40;;
21114;SDS011;10715;48.546;9.896;2023-05-16T01:31:50;2.37;;;2.20;;
21114;SDS011;10715;48.546;9.896;2023-05-16T01:34:15;3.37;;;3.17;;
21114;SDS011;10715;48.546;9.896;2023-05-16T01:37:01;3.77;;;2.73;;
21114;SDS011;10715;48.546;9.896;2023-05-16T01:40:02;4.47;;;3.63;;
21114;SDS011;10715;48.546;9.896;2023-05-16T01:42:47;4.90;;;4.50;;
21114;SDS011;10715;48.546;9.896;2023-05-16T01:45:22;5.70;;;4.23;;
21114;SDS011;10715;48.546;9.896;2023-05-16T01:48:03;3.90;;;3.60;;
21114;SDS011;10715;48.546;9.896;2023-05-16T01:50:35;3.73;;;3.43;;
21114;SDS011;10715;48.546;9.896;2023-05-16T01:53:08;6.90;;;3.70;;
21114;SDS011;10715;48.546;9.896;2023-05-16T01:55:44;3.40;;;3.07;;
21114;SDS011;10715;48.546;9.896;2023-05-16T01:58:12;4.40;;;3.50;;
21114;SDS011;10715;48.546;9.896;2023-05-16T02:00:40;2.93;;;2.73;;
21114;SDS011;10715;48.546;9.896;2023-05-16T02:03:06;4.37;;;3.40;;
21114;SDS011;10715;48.546;9.896;2023-05-16T02:05:32;4.13;;;3.83;;
21114;SDS011;10715;48.546;9.896;2023-05-16T02:07:58;3.60;;;3.13;;
21114;SDS011;10715;48.546;9.896;2023-05-16T02:10:24;5.40;;;3.90;;
21114;SDS011;10715;48.546;9.896;2023-05-16T02:12:51;3.27;;;3.07;;
21114;SDS011;10715;48.546;9.896;2023-05-16T02:15:17;4.07;;;3.70;;
21114;SDS011;10715;48.546;9.896;2023-05-16T02:17:43;4.60;;;4.20;;
21114;SDS011;10715;48.546;9.896;2023-05-16T02:20:09;3.97;;;3.67;;
21114;SDS011;10715;48.546;9.896;2023-05-16T02:22:36;4.43;;;4.03;;
21114;SDS011;10715;48.546;9.896;2023-05-16T02:25:07;5.73;;;4.67;;
21114;SDS011;10715;48.546;9.896;2023-05-16T02:27:33;2.87;;;2.67;;
21114;SDS011;10715;48.546;9.896;2023-05-16T02:29:58;3.20;;;2.60;;
21114;SDS011;10715;48.546;9.896;2023-05-16T02:32:24;4.13;;;3.73;;
21114;SDS011;10715;48.546;9.896;2023-05-16T02:34:50;4.50;;;4.10;;
21114;SDS011;10715;48.546;9.896;2023-05-16T02:37:16;3.10;;;2.80;;
21114;SDS011;10715;48.546;9.896;2023-05-16T02:39:42;3.20;;;3.00;;
21114;SDS011;10715;48.546;9.896;2023-05-16T02:42:07;3.87;;;3.43;;
21114;SDS011;10715;48.546;9.896;2023-05-16T02:44:33;4.20;;;3.23;;
21114;SDS011;10715;48.546;9.896;2023-05-16T02:46:59;4.27;;;3.87;;
21114;SDS011;10715;48.546;9.896;2023-05-16T02:49:25;3.73;;;3.37;;
21114;SDS011;10715;48.546;9.896;2023-05-16T02:51:51;4.30;;;3.97;;
21114;SDS011;10715;48.546;9.896;2023-05-16T02:54:17;3.60;;;3.17;;
21114;SDS011;10715;48.546;9.896;2023-05-16T02:56:43;3.77;;;3.07;;
21114;SDS011;10715;48.546;9.896;2023-05-16T02:59:09;4.50;;;3.60;;
21114;SDS011;10715;48.546;9.896;2023-05-16T03:01:36;7.87;;;5.80;;
21114;SDS011;10715;48.546;9.896;2023-05-16T03:04:02;5.57;;;5.17;;
21114;SDS011;10715;48.546;9.896;2023-05-16T03:06:28;4.30;;;3.80;;
21114;SDS011;10715;48.546;9.896;2023-05-16T03:08:54;6.77;;;4.57;;
21114;SDS011;10715;48.546;9.896;2023-05-16T03:11:20;5.03;;;4.57;;
21114;SDS011;10715;48.546;9.896;2023-05-16T03:13:48;6.30;;;4.63;;
21114;SDS011;10715;48.546;9.896;2023-05-16T03:16:14;4.70;;;4.20;;
21114;SDS011;10715;48.546;9.896;2023-05-16T03:18:40;7.40;;;5.10;;
21114;SDS011;10715;48.546;9.896;2023-05-16T03:21:06;5.73;;;5.23;;
21114;SDS011;10715;48.546;9.896;2023-05-16T03:23:32;5.23;;;4.90;;
21114;SDS011;10715;48.546;9.896;2023-05-16T03:25:58;5.73;;;5.13;;
21114;SDS011;10715;48.546;9.896;2023-05-16T03:28:25;6.70;;;4.90;;
21114;SDS011;10715;48.546;9.896;2023-05-16T03:30:51;4.83;;;4.43;;
21114;SDS011;10715;48.546;9.896;2023-05-16T03:33:16;7.63;;;5.43;;
21114;SDS011;10715;48.546;9.896;2023-05-16T03:35:43;8.40;;;5.70;;
21114;SDS011;10715;48.546;9.896;2023-05-16T03:38:09;5.83;;;5.33;;
21114;SDS011;10715;48.546;9.896;2023-05-16T03:40:35;5.70;;;4.67;;
21114;SDS011;10715;48.546;9.896;2023-05-16T03:43:00;6.43;;;5.27;;
21114;SDS011;10715;48.546;9.896;2023-05-16T03:45:26;4.33;;;3.97;;
21114;SDS011;10715;48.546;9.896;2023-05-16T03:47:53;7.73;;;5.07;;
21114;SDS011;10715;48.546;9.896;2023-05-16T03:50:19;5.23;;;4.57;;
21114;SDS011;10715;48.546;9.896;2023-05-16T03:52:44;7.80;;;6.63;;
21114;SDS011;10715;48.546;9.896;2023-05-16T03:55:10;7.80;;;6.63;;
21114;SDS011;10715;48.546;9.896;2023-05-16T03:57:38;10.60;;;6.60;;
21114;SDS011;10715;48.546;9.896;2023-05-16T04:00:04;8.90;;;6.23;;
21114;SDS011;10715;48.546;9.896;2023-05-16T04:02:33;10.20;;;6.17;;
21114;SDS011;10715;48.546;9.896;2023-05-16T04:04:59;13.27;;;7.17;;
21114;SDS011;10715;48.546;9.896;2023-05-16T04:07:24;8.70;;;7.10;;
21114;SDS011;10715;48.546;9.896;2023-05-16T04:09:51;10.50;;;6.80;;
21114;SDS011;10715;48.546;9.896;2023-05-16T04:12:18;15.00;;;9.33;;
21114;SDS011;10715;48.546;9.896;2023-05-16T04:14:43;8.50;;;7.60;;
21114;SDS011;10715;48.546;9.896;2023-05-16T04:17:09;13.40;;;8.00;;
21114;SDS011;10715;48.546;9.896;2023-05-16T04:19:36;17.40;;;10.77;;
21114;SDS011;10715;48.546;9.896;2023-05-16T04:22:02;22.67;;;11.13;;
21114;SDS011;10715;48.546;9.896;2023-05-16T04:24:27;31.80;;;15.67;;
21114;SDS011;10715;48.546;9.896;2023-05-16T04:26:53;32.20;;;18.40;;
21114;SDS011;10715;48.546;9.896;2023-05-16T04:29:20;31.07;;;16.67;;
21114;SDS011;10715;48.546;9.896;2023-05-16T04:31:46;33.90;;;18.10;;
21114;SDS011;10715;48.546;9.896;2023-05-16T04:34:12;39.00;;;20.20;;
21114;SDS011;10715;48.546;9.896;2023-05-16T04:36:39;32.40;;;17.60;;
21114;SDS011;10715;48.546;9.896;2023-05-16T04:39:05;41.33;;;21.03;;
21114;SDS011;10715;48.546;9.896;2023-05-16T04:41:32;40.57;;;22.13;;
21114;SDS011;10715;48.546;9.896;2023-05-16T04:44:00;40.77;;;22.80;;
21114;SDS011;10715;48.546;9.896;2023-05-16T04:46:28;38.03;;;22.10;;
21114;SDS011;10715;48.546;9.896;2023-05-16T04:48:54;40.37;;;22.60;;
21114;SDS011;10715;48.546;9.896;2023-05-16T04:51:20;37.63;;;24.03;;
21114;SDS011;10715;48.546;9.896;2023-05-16T04:53:46;49.53;;;21.70;;
21114;SDS011;10715;48.546;9.896;2023-05-16T04:56:12;42.17;;;24.40;;
21114;SDS011;10715;48.546;9.896;2023-05-16T04:58:37;47.63;;;25.53;;
21114;SDS011;10715;48.546;9.896;2023-05-16T05:01:03;45.10;;;22.93;;
21114;SDS011;10715;48.546;9.896;2023-05-16T05:03:29;33.77;;;20.80;;
21114;SDS011;10715;48.546;9.896;2023-05-16T05:05:55;40.23;;;22.90;;
21114;SDS011;10715;48.546;9.896;2023-05-16T05:08:20;44.13;;;22.60;;
21114;SDS011;10715;48.546;9.896;2023-05-16T05:10:46;52.63;;;23.77;;
21114;SDS011;10715;48.546;9.896;2023-05-16T05:13:12;47.33;;;23.73;;
21114;SDS011;10715;48.546;9.896;2023-05-16T05:15:38;35.50;;;21.20;;
21114;SDS011;10715;48.546;9.896;2023-05-16T05:18:04;36.87;;;21.33;;
21114;SDS011;10715;48.546;9.896;2023-05-16T05:20:29;36.20;;;21.83;;
21114;SDS011;10715;48.546;9.896;2023-05-16T05:22:55;41.30;;;22.77;;
21114;SDS011;10715;48.546;9.896;2023-05-16T05:25:21;42.97;;;23.70;;
21114;SDS011;10715;48.546;9.896;2023-05-16T05:27:46;42.50;;;21.50;;
21114;SDS011;10715;48.546;9.896;2023-05-16T05:30:12;48.30;;;25.27;;
21114;SDS011;10715;48.546;9.896;2023-05-16T05:32:38;45.03;;;23.17;;
21114;SDS011;10715;48.546;9.896;2023-05-16T05:35:04;48.60;;;25.40;;
21114;SDS011;10715;48.546;9.896;2023-05-16T05:37:30;37.77;;;23.37;;
21114;SDS011;10715;48.546;9.896;2023-05-16T05:39:56;48.40;;;23.37;;
21114;SDS011;10715;48.546;9.896;2023-05-16T05:42:22;42.33;;;23.40;;
21114;SDS011;10715;48.546;9.896;2023-05-16T05:44:47;53.67;;;26.40;;
21114;SDS011;10715;48.546;9.896;2023-05-16T05:47:13;52.57;;;24.37;;
21114;SDS011;10715;48.546;9.896;2023-05-16T05:49:39;40.40;;;21.17;;
21114;SDS011;10715;48.546;9.896;2023-05-16T05:52:05;42.80;;;21.37;;
21114;SDS011;10715;48.546;9.896;2023-05-16T05:54:32;44.30;;;24.17;;
21114;SDS011;10715;48.546;9.896;2023-05-16T05:56:58;41.47;;;24.80;;
21114;SDS011;10715;48.546;9.896;2023-05-16T05:59:24;48.83;;;23.90;;
21114;SDS011;10715;48.546;9.896;2023-05-16T06:01:49;43.57;;;22.30;;
21114;SDS011;10715;48.546;9.896;2023-05-16T06:04:18;45.03;;;24.70;;
21114;SDS011;10715;48.546;9.896;2023-05-16T06:06:44;41.60;;;22.97;;
21114;SDS011;10715;48.546;9.896;2023-05-16T06:09:10;44.20;;;21.67;;
21114;SDS011;10715;48.546;9.896;2023-05-16T06:11:38;41.20;;;21.80;;
21114;SDS011;10715;48.546;9.896;2023-05-16T06:14:03;39.27;;;24.33;;
21114;SDS011;10715;48.546;9.896;2023-05-16T06:16:29;45.17;;;22.93;;
21114;SDS011;10715;48.546;9.896;2023-05-16T06:18:55;46.93;;;22.53;;
21114;SDS011;10715;48.546;9.896;2023-05-16T06:21:20;44.03;;;22.00;;
21114;SDS011;10715;48.546;9.896;2023-05-16T06:23:46;43.83;;;22.60;;
21114;SDS011;10715;48.546;9.896;2023-05-16T06:26:12;40.90;;;20.27;;
21114;SDS011;10715;48.546;9.896;2023-05-16T06:28:37;39.10;;;21.50;;
21114;SDS011;10715;48.546;9.896;2023-05-16T06:31:03;35.97;;;21.97;;
21114;SDS011;10715;48.546;9.896;2023-05-16T06:33:29;35.33;;;20.60;;
21114;SDS011;10715;48.546;9.896;2023-05-16T06:35:55;36.67;;;22.53;;
21114;SDS011;10715;48.546;9.896;2023-05-16T06:38:20;37.23;;;22.07;;
21114;SDS011;10715;48.546;9.896;2023-05-16T06:40:46;33.20;;;19.97;;
21114;SDS011;10715;48.546;9.896;2023-05-16T06:43:12;42.80;;;22.17;;
21114;SDS011;10715;48.546;9.896;2023-05-16T06:45:38;38.00;;;22.30;;
21114;SDS011;10715;48.546;9.896;2023-05-16T06:48:05;41.70;;;21.27;;
21114;SDS011;10715;48.546;9.896;2023-05-16T06:50:31;37.83;;;22.50;;
21114;SDS011;10715;48.546;9.896;2023-05-16T06:52:57;41.10;;;20.97;;
21114;SDS011;10715;48.546;9.896;2023-05-16T06:55:23;38.70;;;21.23;;
21114;SDS011;10715;48.546;9.896;2023-05-16T06:57:48;34.03;;;22.37;;
21114;SDS011;10715;48.546;9.896;2023-05-16T07:00:14;33.70;;;19.60;;
21114;SDS011;10715;48.546;9.896;2023-05-16T07:02:40;39.87;;;20.10;;
21114;SDS011;10715;48.546;9.896;2023-05-16T07:05:06;33.50;;;19.93;;
21114;SDS011;10715;48.546;9.896;2023-05-16T07:07:32;32.93;;;20.40;;
21114;SDS011;10715;48.546;9.896;2023-05-16T07:09:58;33.17;;;20.37;;
21114;SDS011;10715;48.546;9.896;2023-05-16T07:12:23;33.97;;;20.20;;
21114;SDS011;10715;48.546;9.896;2023-05-16T07:14:49;36.40;;;20.67;;
21114;SDS011;10715;48.546;9.896;2023-05-16T07:17:15;38.57;;;21.87;;
21114;SDS011;10715;48.546;9.896;2023-05-16T07:19:41;36.90;;;20.33;;
21114;SDS011;10715;48.546;9.896;2023-05-16T07:22:06;31.10;;;20.37;;
21114;SDS011;10715;48.546;9.896;2023-05-16T07:24:32;35.60;;;21.93;;
21114;SDS011;10715;48.546;9.896;2023-05-16T07:26:58;43.87;;;21.63;;
21114;SDS011;10715;48.546;9.896;2023-05-16T07:29:23;35.63;;;19.97;;
21114;SDS011;10715;48.546;9.896;2023-05-16T07:31:49;41.90;;;21.47;;
21114;SDS011;10715;48.546;9.896;2023-05-16T07:34:15;27.97;;;20.23;;
21114;SDS011;10715;48.546;9.896;2023-05-16T07:36:41;32.00;;;17.57;;
21114;SDS011;10715;48.546;9.896;2023-05-16T07:39:06;40.77;;;19.30;;
21114;SDS011;10715;48.546;9.896;2023-05-16T07:41:32;32.17;;;18.97;;
21114;SDS011;10715;48.546;9.896;2023-05-16T07:43:58;43.27;;;20.83;;
21114;SDS011;10715;48.546;9.896;2023-05-16T07:46:24;42.87;;;21.67;;
21114;SDS011;10715;48.546;9.896;2023-05-16T07:48:49;30.20;;;19.67;;
21114;SDS011;10715;48.546;9.896;2023-05-16T07:51:15;40.93;;;21.37;;
21114;SDS011;10715;48.546;9.896;2023-05-16T07:53:41;35.70;;;19.97;;
21114;SDS011;10715;48.546;9.896;2023-05-16T07:56:07;31.43;;;19.20;;
21114;SDS011;10715;48.546;9.896;2023-05-16T07:58:32;31.13;;;18.30;;
21114;SDS011;10715;48.546;9.896;2023-05-16T08:00:58;30.00;;;17.63;;
21114;SDS011;10715;48.546;9.896;2023-05-16T08:03:24;27.87;;;19.60;;
21114;SDS011;10715;48.546;9.896;2023-05-16T08:05:50;31.20;;;19.20;;
21114;SDS011;10715;48.546;9.896;2023-05-16T08:08:16;33.37;;;19.83;;
21114;SDS011;10715;48.546;9.896;2023-05-16T08:10:41;28.93;;;17.83;;
21114;SDS011;10715;48.546;9.896;2023-05-16T08:13:07;33.87;;;18.60;;
21114;SDS011;10715;48.546;9.896;2023-05-16T08:15:33;29.40;;;19.50;;
21114;SDS011;10715;48.546;9.896;2023-05-16T08:17:59;31.60;;;17.90;;
21114;SDS011;10715;48.546;9.896;2023-05-16T08:20:26;26.23;;;16.00;;
21114;SDS011;10715;48.546;9.896;2023-05-16T08:22:51;26.67;;;15.60;;
21114;SDS011;10715;48.546;9.896;2023-05-16T08:25:18;27.73;;;18.00;;
21114;SDS011;10715;48.546;9.896;2023-05-16T08:27:44;25.23;;;17.23;;
21114;SDS011;10715;48.546;9.896;2023-05-16T08:30:10;27.40;;;17.50;;
21114;SDS011;10715;48.546;9.896;2023-05-16T08:32:37;28.93;;;18.40;;
21114;SDS011;10715;48.546;9.896;2023-05-16T08:35:02;29.80;;;19.10;;
21114;SDS011;10715;48.546;9.896;2023-05-16T08:37:28;29.10;;;20.40;;
21114;SDS011;10715;48.546;9.896;2023-05-16T08:39:54;32.17;;;17.67;;
21114;SDS011;10715;48.546;9.896;2023-05-16T08:42:20;32.63;;;18.07;;
21114;SDS011;10715;48.546;9.896;2023-05-16T08:44:46;34.40;;;18.63;;
21114;SDS011;10715;48.546;9.896;2023-05-16T08:47:12;28.97;;;17.17;;
21114;SDS011;10715;48.546;9.896;2023-05-16T08:49:48;32.93;;;17.77;;
21114;SDS011;10715;48.546;9.896;2023-05-16T08:52:17;33.37;;;18.30;;
21114;SDS011;10715;48.546;9.896;2023-05-16T08:54:45;29.83;;;17.07;;
21114;SDS011;10715;48.546;9.896;2023-05-16T08:57:12;28.20;;;18.60;;
21114;SDS011;10715;48.546;9.896;2023-05-16T08:59:39;29.80;;;16.30;;
21114;SDS011;10715;48.546;9.896;2023-05-16T09:02:05;25.07;;;15.50;;
21114;SDS011;10715;48.546;9.896;2023-05-16T09:04:32;26.30;;;17.30;;
21114;SDS011;10715;48.546;9.896;2023-05-16T09:06:59;30.33;;;17.40;;
21114;SDS011;10715;48.546;9.896;2023-05-16T09:09:24;31.60;;;16.60;;
21114;SDS011;10715;48.546;9.896;2023-05-16T09:11:50;22.20;;;16.33;;
21114;SDS011;10715;48.546;9.896;2023-05-16T09:14:16;22.47;;;16.13;;
21114;SDS011;10715;48.546;9.896;2023-05-16T09:16:42;25.17;;;17.27;;
21114;SDS011;10715;48.546;9.896;2023-05-16T09:19:11;26.57;;;16.63;;
21114;SDS011;10715;48.546;9.896;2023-05-16T09:21:37;33.37;;;17.93;;
21114;SDS011;10715;48.546;9.896;2023-05-16T09:24:04;23.00;;;16.33;;
21114;SDS011;10715;48.546;9.896;2023-05-16T09:26:34;30.77;;;18.37;;
21114;SDS011;10715;48.546;9.896;2023-05-16T09:29:09;29.10;;;16.57;;
21114;SDS011;10715;48.546;9.896;2023-05-16T09:31:35;31.87;;;19.40;;
21114;SDS011;10715;48.546;9.896;2023-05-16T09:34:11;22.90;;;16.40;;
21114;SDS011;10715;48.546;9.896;2023-05-16T09:36:37;25.17;;;17.00;;
21114;SDS011;10715;48.546;9.896;2023-05-16T09:39:02;25.97;;;17.13;;
21114;SDS011;10715;48.546;9.896;2023-05-16T09:41:33;21.97;;;14.27;;
21114;SDS011;10715;48.546;9.896;2023-05-16T09:44:02;25.00;;;15.90;;
21114;SDS011;10715;48.546;9.896;2023-05-16T09:46:29;19.60;;;14.80;;
21114;SDS011;10715;48.546;9.896;2023-05-16T09:48:57;29.80;;;16.73;;
21114;SDS011;10715;48.546;9.896;2023-05-16T09:51:23;25.47;;;17.53;;
21114;SDS011;10715;48.546;9.896;2023-05-16T09:53:50;29.73;;;16.70;;
21114;SDS011;10715;48.546;9.896;2023-05-16T09:56:16;25.23;;;15.07;;
21114;SDS011;10715;48.546;9.896;2023-05-16T09:58:42;21.00;;;14.50;;
21114;SDS011;10715;48.546;9.896;2023-05-16T10:01:09;22.40;;;14.97;;
21114;SDS011;10715;48.546;9.896;2023-05-16T10:03:39;19.60;;;13.80;;
21114;SDS011;10715;48.546;9.896;2023-05-16T10:06:05;22.07;;;16.20;;
21114;SDS011;10715;48.546;9.896;2023-05-16T10:08:32;22.10;;;15.03;;
21114;SDS011;10715;48.546;9.896;2023-05-16T10:11:03;19.90;;;14.20;;
21114;SDS011;10715;48.546;9.896;2023-05-16T10:13:30;24.50;;;14.20;;
21114;SDS011;10715;48.546;9.896;2023-05-16T10:15:58;22.63;;;14.53;;
21114;SDS011;10715;48.546;9.896;2023-05-16T10:18:29;19.23;;;13.07;;
21114;SDS011;10715;48.546;9.896;2023-05-16T10:20:57;21.30;;;13.57;;
21114;SDS011;10715;48.546;9.896;2023-05-16T10:23:28;19.17;;;12.80;;
21114;SDS011;10715;48.546;9.896;2023-05-16T10:25:57;13.27;;;10.77;;
21114;SDS011;10715;48.546;9.896;2023-05-16T10:28:25;15.20;;;11.90;;
21114;SDS011;10715;48.546;9.896;2023-05-16T10:30:52;15.10;;;12.37;;
21114;SDS011;10715;48.546;9.896;2023-05-16T10:33:19;16.33;;;11.50;;
21114;SDS011;10715;48.546;9.896;2023-05-16T10:35:45;14.97;;;10.27;;
21114;SDS011;10715;48.546;9.896;2023-05-16T10:38:11;16.73;;;10.83;;
21114;SDS011;10715;48.546;9.896;2023-05-16T10:40:40;15.33;;;11.30;;
21114;SDS011;10715;48.546;9.896;2023-05-16T10:43:07;18.53;;;12.40;;
21114;SDS011;10715;48.546;9.896;2023-05-16T10:45:33;13.90;;;11.20;;
21114;SDS011;10715;48.546;9.896;2023-05-16T10:48:04;12.67;;;10.63;;
21114;SDS011;10715;48.546;9.896;2023-05-16T10:50:33;12.60;;;9.80;;
21114;SDS011;10715;48.546;9.896;2023-05-16T10:55:50;14.43;;;9.87;;
21114;SDS011;10715;48.546;9.896;2023-05-16T11:04:01;14.33;;;10.67;;
21114;SDS011;10715;48.546;9.896;2023-05-16T11:14:03;11.63;;;9.43;;
21114;SDS011;10715;48.546;9.896;2023-05-16T11:16:29;14.27;;;8.80;;
21114;SDS011;10715;48.546;9.896;2023-05-16T11:19:03;11.17;;;8.60;;
21114;SDS011;10715;48.546;9.896;2023-05-16T11:24:32;19.03;;;11.10;;
21114;SDS011;10715;48.546;9.896;2023-05-16T11:26:59;12.53;;;8.67;;
21114;SDS011;10715;48.546;9.896;2023-05-16T11:29:33;9.83;;;8.33;;
21114;SDS011;10715;48.546;9.896;2023-05-16T11:32:00;9.37;;;7.70;;
21114;SDS011;10715;48.546;9.896;2023-05-16T11:34:30;10.70;;;8.90;;
21114;SDS011;10715;48.546;9.896;2023-05-16T11:36:56;14.03;;;8.43;;
21114;SDS011;10715;48.546;9.896;2023-05-16T11:39:24;10.97;;;7.37;;
21114;SDS011;10715;48.546;9.896;2023-05-16T11:41:50;11.77;;;9.30;;
21114;SDS011;10715;48.546;9.896;2023-05-16T11:44:16;9.53;;;8.33;;
21114;SDS011;10715;48.546;9.896;2023-05-16T11:46:42;10.20;;;8.30;;
21114;SDS011;10715;48.546;9.896;2023-05-16T11:49:10;8.30;;;7.50;;
21114;SDS011;10715;48.546;9.896;2023-05-16T11:51:40;9.93;;;8.93;;
21114;SDS011;10715;48.546;9.896;2023-05-16T11:54:10;9.93;;;8.03;;
21114;SDS011;10715;48.546;9.896;2023-05-16T11:56:37;14.57;;;8.90;;
21114;SDS011;10715;48.546;9.896;2023-05-16T11:59:07;12.13;;;9.40;;
21114;SDS011;10715;48.546;9.896;2023-05-16T12:01:35;8.30;;;7.60;;
21114;SDS011;10715;48.546;9.896;2023-05-16T12:04:12;9.47;;;7.83;;
21114;SDS011;10715;48.546;9.896;2023-05-16T12:06:38;10.63;;;7.63;;
21114;SDS011;10715;48.546;9.896;2023-05-16T12:09:10;9.07;;;7.63;;
21114;SDS011;10715;48.546;9.896;2023-05-16T12:11:38;7.77;;;6.90;;
21114;SDS011;10715;48.546;9.896;2023-05-16T12:14:05;10.60;;;7.10;;
21114;SDS011;10715;48.546;9.896;2023-05-16T12:16:32;7.83;;;6.57;;
21114;SDS011;10715;48.546;9.896;2023-05-16T12:18:59;8.70;;;7.50;;
21114;SDS011;10715;48.546;9.896;2023-05-16T12:21:26;8.80;;;7.67;;
21114;SDS011;10715;48.546;9.896;2023-05-16T12:23:55;10.90;;;7.63;;
21114;SDS011;10715;48.546;9.896;2023-05-16T12:26:29;11.07;;;7.50;;
21114;SDS011;10715;48.546;9.896;2023-05-16T12:28:56;9.77;;;6.93;;
21114;SDS011;10715;48.546;9.896;2023-05-16T12:31:25;7.17;;;6.20;;
21114;SDS011;10715;48.546;9.896;2023-05-16T12:33:54;7.50;;;6.70;;
21114;SDS011;10715;48.546;9.896;2023-05-16T12:36:21;13.40;;;8.10;;
21114;SDS011;10715;48.546;9.896;2023-05-16T12:38:48;8.80;;;6.97;;
21114;SDS011;10715;48.546;9.896;2023-05-16T12:41:21;10.90;;;8.53;;
21114;SDS011;10715;48.546;9.896;2023-05-16T12:43:49;10.33;;;7.37;;
21114;SDS011;10715;48.546;9.896;2023-05-16T12:46:15;8.57;;;7.70;;
21114;SDS011;10715;48.546;9.896;2023-05-16T12:48:43;10.63;;;7.90;;
21114;SDS011;10715;48.546;9.896;2023-05-16T12:51:15;11.37;;;8.23;;
21114;SDS011;10715;48.546;9.896;2023-05-16T12:56:09;11.90;;;8.00;;
21114;SDS011;10715;48.546;9.896;2023-05-16T12:58:36;10.37;;;7.27;;
21114;SDS011;10715;48.546;9.896;2023-05-16T13:01:02;10.33;;;8.30;;
21114;SDS011;10715;48.546;9.896;2023-05-16T13:03:28;10.00;;;8.17;;
21114;SDS011;10715;48.546;9.896;2023-05-16T13:05:54;11.00;;;8.37;;
21114;SDS011;10715;48.546;9.896;2023-05-16T13:08:20;15.07;;;8.53;;
21114;SDS011;10715;48.546;9.896;2023-05-16T13:10:46;9.37;;;7.13;;
21114;SDS011;10715;48.546;9.896;2023-05-16T13:13:11;9.00;;;7.97;;
21114;SDS011;10715;48.546;9.896;2023-05-16T13:15:38;13.30;;;9.80;;
21114;SDS011;10715;48.546;9.896;2023-05-16T13:18:07;13.00;;;9.77;;
21114;SDS011;10715;48.546;9.896;2023-05-16T13:20:36;10.37;;;8.70;;
21114;SDS011;10715;48.546;9.896;2023-05-16T13:23:02;18.60;;;9.30;;
21114;SDS011;10715;48.546;9.896;2023-05-16T13:25:29;9.23;;;7.43;;
21114;SDS011;10715;48.546;9.896;2023-05-16T13:27:55;9.63;;;7.73;;
21114;SDS011;10715;48.546;9.896;2023-05-16T13:30:21;17.33;;;8.93;;
21114;SDS011;10715;48.546;9.896;2023-05-16T13:32:47;11.40;;;7.87;;
21114;SDS011;10715;48.546;9.896;2023-05-16T13:35:13;9.57;;;7.23;;
21114;SDS011;10715;48.546;9.896;2023-05-16T13:37:38;9.97;;;8.70;;
21114;SDS011;10715;48.546;9.896;2023-05-16T13:40:05;11.00;;;7.57;;
21114;SDS011;10715;48.546;9.896;2023-05-16T13:42:35;16.90;;;9.03;;
21114;SDS011;10715;48.546;9.896;2023-05-16T13:45:02;12.97;;;9.90;;
21114;SDS011;10715;48.546;9.896;2023-05-16T13:47:28;14.00;;;9.40;;
21114;SDS011;10715;48.546;9.896;2023-05-16T13:49:54;16.27;;;8.40;;
21114;SDS011;10715;48.546;9.896;2023-05-16T13:52:19;16.53;;;8.43;;
21114;SDS011;10715;48.546;9.896;2023-05-16T13:54:45;9.50;;;7.90;;
21114;SDS011;10715;48.546;9.896;2023-05-16T13:57:11;13.23;;;8.20;;
21114;SDS011;10715;48.546;9.896;2023-05-16T13:59:37;10.87;;;7.10;;
21114;SDS011;10715;48.546;9.896;2023-05-16T14:02:03;12.90;;;9.87;;
21114;SDS011;10715;48.546;9.896;2023-05-16T14:04:29;12.90;;;8.43;;
21114;SDS011;10715;48.546;9.896;2023-05-16T14:06:54;9.83;;;8.23;;
21114;SDS011;10715;48.546;9.896;2023-05-16T14:09:20;9.87;;;8.27;;
21114;SDS011;10715;48.546;9.896;2023-05-16T14:11:46;11.73;;;8.40;;
21114;SDS011;10715;48.546;9.896;2023-05-16T14:14:12;10.40;;;8.07;;
21114;SDS011;10715;48.546;9.896;2023-05-16T14:16:38;10.43;;;9.30;;
21114;SDS011;10715;48.546;9.896;2023-05-16T14:19:08;11.20;;;8.43;;
21114;SDS011;10715;48.546;9.896;2023-05-16T14:21:34;12.53;;;9.43;;
21114;SDS011;10715;48.546;9.896;2023-05-16T14:24:00;13.47;;;10.13;;
21114;SDS011;10715;48.546;9.896;2023-05-16T14:26:26;12.77;;;9.27;;
21114;SDS011;10715;48.546;9.896;2023-05-16T14:28:51;16.43;;;8.17;;
21114;SDS011;10715;48.546;9.896;2023-05-16T14:31:17;7.70;;;7.00;;
21114;SDS011;10715;48.546;9.896;2023-05-16T14:33:43;7.70;;;7.00;;
21114;SDS011;10715;48.546;9.896;2023-05-16T14:36:08;8.00;;;7.30;;
21114;SDS011;10715;48.546;9.896;2023-05-16T14:38:34;10.00;;;7.57;;
21114;SDS011;10715;48.546;9.896;2023-05-16T14:41:00;15.77;;;8.77;;
21114;SDS011;10715;48.546;9.896;2023-05-16T14:43:26;13.40;;;7.80;;
21114;SDS011;10715;48.546;9.896;2023-05-16T14:45:52;12.47;;;7.60;;
21114;SDS011;10715;48.546;9.896;2023-05-16T14:48:18;11.17;;;7.93;;
21114;SDS011;10715;48.546;9.896;2023-05-16T14:50:43;11.73;;;7.03;;
21114;SDS011;10715;48.546;9.896;2023-05-16T14:53:10;10.30;;;6.27;;
21114;SDS011;10715;48.546;9.896;2023-05-16T14:55:35;9.00;;;6.60;;
21114;SDS011;10715;48.546;9.896;2023-05-16T14:58:01;8.53;;;6.17;;